WEATHER DATA

YESTERDAY
Time Temp. Dewp. Hum. Wind dir Wind speed Wind gust Bar. 1h Prec. 24h Prec.
00:02 20.5 13 62 270 0.6 2.2 1022.1 0.0000 0.0000
00:13 20.5 13.5 64 270 0.6 1.7 1022.1 0.0000 0.0000
00:23 20.6 13.8 65 247 0.6 1.7 1022.2 0.0000 0.0000
00:33 20.6 14.3 67 270 0.6 1.9 1022 0.0000 0.0000
00:43 20.6 14.5 68 270 0.6 2.8 1021.9 0.0000 0.0000
00:54 20.6 14.7 69 270 0.6 1.9 1022 0.0000 0.0000
01:03 20.6 15.2 71 270 0.6 1.9 1021.9 0.0000 0.0000
01:13 20.6 15.4 72 270 0.6 1.4 1022.1 0.0000 0.0000
01:23 20.6 15.6 73 270 0.6 1.4 1022 0.0000 0.0000
01:34 20.6 15.6 73 270 0.8 2.5 1022.1 0.0000 0.0000
01:44 20.6 15.8 74 270 0.8 2.2 1022.1 0.0000 0.0000
02:03 20.6 16 75 270 0.6 1.4 1022.2 0.0000 0.0000
02:13 20.6 16 75 259 0.8 2.5 1022.2 0.0000 0.0000
02:33 20.5 16.1 76 270 0.8 2.2 1022 0.0000 0.0000
02:43 20.5 16.3 77 270 0.6 2.5 1022.1 0.0000 0.0000
02:53 20.5 16.5 78 259 0.8 1.9 1022 0.0000 0.0000
03:03 20.4 16.4 78 270 0.6 1.4 1021.9 0.0000 0.0000
03:14 20.3 16.5 79 270 0.6 2.2 1021.7 0.0000 0.0000
03:24 20.2 16.4 79 270 0.6 1.9 1021.6 0.0000 0.0000
03:33 20.2 16.4 79 270 0.6 2.2 1021.5 0.0000 0.0000
03:44 20.2 16.6 80 270 0.6 1.4 1021.6 0.0000 0.0000
03:54 20.1 16.5 80 255 0.6 1.4 1021.3 0.0000 0.0000
04:04 20.1 16.7 81 270 0.6 1.4 1021.3 0.0000 0.0000
04:14 20.1 16.7 81 270 0.6 1.7 1021.3 0.0000 0.0000
04:24 20.1 16.7 81 255 0.6 1.7 1021.1 0.0000 0.0000
04:33 20 16.8 82 270 0.6 1.4 1021.1 0.0000 0.0000
04:43 20 16.8 82 270 0.6 1.7 1021.3 0.0000 0.0000
04:54 20 16.8 82 270 0.6 1.9 1021 0.0000 0.0000
05:04 20 16.8 82 270 0.8 1.7 1021.1 0.0000 0.0000
05:14 20 16.8 82 270 0.6 1.7 1020.9 0.0000 0.0000
05:23 20 17 83 255 0.6 2.2 1020.9 0.0000 0.0000
05:34 20 17 83 270 0.6 2.5 1020.8 0.0000 0.0000
05:43 20 17 83 270 0.6 1.9 1020.7 0.0000 0.0000
05:54 20 17 83 270 0.6 1.7 1020.8 0.0000 0.0000
06:04 20 17 83 270 0.6 1.9 1020.7 0.0000 0.0000
06:14 20 17.2 84 270 0.6 2.2 1020.7 0.0000 0.0000
06:24 20 17.2 84 270 0.6 1.9 1020.8 0.0000 0.0000
06:34 19.9 17.1 84 270 0.6 1.9 1020.6 0.0000 0.0000
06:45 19.9 17.1 84 270 0.8 2.8 1020.9 0.0000 0.0000
06:55 19.9 17.3 85 250 0.6 1.4 1020.7 0.0000 0.0000
07:04 19.9 17.3 85 250 0.6 1.4 1020.7 0.0000 0.0000
07:15 19.9 17.3 85 270 0.6 2.2 1020.6 0.0000 0.0000
07:25 19.9 17.3 85 270 0.6 2.5 1020.4 0.0000 0.0000
07:35 19.9 17.3 85 252 0.6 1.4 1020.6 0.0000 0.0000
07:45 19.9 17.3 85 270 0.6 2.2 1020.5 0.0000 0.0000
07:56 19.9 17.3 85 270 0.6 1.4 1020.7 0.0000 0.0000
08:06 19.9 17.3 85 270 0.6 1.9 1020.7 0.0000 0.0000
08:15 19.9 17.3 85 270 0.6 1.7 1020.5 0.0000 0.0000
08:25 19.9 17.3 85 270 0.6 2.2 1020.6 0.0000 0.0000
08:36 19.9 17.3 85 270 0.6 1.9 1020.6 0.0000 0.0000
08:46 20 17.4 85 270 0.8 2.8 1020.5 0.0000 0.0000
08:54 20 17.4 85 270 0.6 2.2 1020.6 0.0000 0.0000
09:03 20.1 17.5 85 270 0.6 2.2 1020.5 0.0000 0.0000
09:13 20.2 17.6 85 270 0.6 1.9 1020.4 0.0000 0.0000
09:24 20.3 17.7 85 270 0.8 2.2 1020.5 0.0000 0.0000
09:34 20.4 17.8 85 270 0.8 2.2 1020.4 0.0000 0.0000
09:44 20.5 17.9 85 270 0.8 1.9 1020.6 0.0000 0.0000
09:53 20.6 17.8 84 270 1.1 3.3 1020.6 0.0000 0.0000
10:04 20.6 17.8 84 270 0.6 1.9 1020.8 0.0000 0.0000
10:14 20.6 17.8 84 270 0.8 1.9 1020.6 0.0000 0.0000
10:24 20.7 17.9 84 270 1.1 2.8 1020.6 0.0000 0.0000
10:34 20.8 18 84 270 0.8 2.2 1020.7 0.0000 0.0000
10:44 20.9 18.1 84 259 1.1 3.6 1020.6 0.0000 0.0000
11:03 21 18 83 258 0.8 3.1 1021 0.0000 0.0000
11:12 21.2 18.2 83 270 0.6 2.5 1020.6 0.0000 0.0000
11:33 21.5 18.3 82 270 0.8 2.5 1020.3 0.0000 0.0000
11:39 21.7 18.5 82 270 0.8 3.1 1020.5 0.0000 0.0000
11:49 21.7 18.3 81 270 1.1 2.8 1020.6 0.0000 0.0000
11:59 21.7 18.3 81 270 1.1 2.8 1020.4 0.0000 0.0000
12:20 21.6 18.2 81 260 0.8 2.5 1020.5 0.0000 0.0000
12:30 21.8 18.6 82 270 0.8 2.8 1020.1 0.0000 0.0000
12:37 21.9 18.7 82 270 1.1 3.6 1020.2 0.0000 0.0000
12:46 22.1 18.7 81 270 0.8 2.8 1020.2 0.0000 0.0000
12:56 22.3 18.7 80 270 1.1 2.8 1020.5 0.0000 0.0000
13:07 22.4 18.8 80 270 1.1 3.3 1020.1 0.0000 0.0000
13:17 22.6 18.8 79 270 1.1 3.6 1020.2 0.0000 0.0000
13:26 22.8 19 79 270 0.8 1.9 1019.9 0.0000 0.0000
13:36 23 19 78 270 0.8 2.2 1019.9 0.0000 0.0000
13:47 23.2 19.2 78 270 1.4 4.2 1019.8 0.0000 0.0000
13:57 23.6 19.3 77 259 1.1 3.3 1019.8 0.0000 0.0000
14:07 23.7 19.2 76 270 1.1 4.2 1019.8 0.0000 0.0000
14:17 23.7 19 75 270 1.1 2.5 1019.7 0.0000 0.0000
14:27 23.6 18.9 75 252 1.1 4.2 1019.5 0.0000 0.0000
14:37 23.5 18.8 75 255 1.1 4.4 1019.3 0.0000 0.0000
14:47 23.5 18.8 75 270 1.4 3.9 1019.3 0.0000 0.0000
14:57 23.4 18.9 76 270 1.1 5.6 1019.3 0.0000 0.0000
15:07 23.3 19.2 78 270 0.8 2.8 1019.3 0.0000 0.0000
15:17 23.2 19.2 78 270 1.1 3.1 1019.5 0.0000 0.0000
15:28 23 19.2 79 270 1.1 2.8 1019.3 0.0000 0.0000
15:37 22.8 19.2 80 246 0.6 2.5 1019.5 0.0000 0.0000
15:47 22.7 19.5 82 270 0.8 2.2 1019.4 0.0000 0.0000
15:57 22.7 19.5 82 270 0.8 3.3 1019.4 0.0000 0.0000
16:08 22.5 19.3 82 257 1.1 3.3 1019.5 0.0000 0.0000
16:18 22.3 19.3 83 247 0.6 2.2 1019.5 0.0000 0.0000
16:27 22.1 19.3 84 270 0.8 2.8 1019.3 0.0000 0.0000
16:38 22.1 19.3 84 255 1.1 3.1 1019.4 0.0000 0.0000
16:48 22 19.4 85 255 0.8 2.5 1019.7 0.0000 0.0000
16:58 22 19.4 85 253 0.8 2.5 1019.5 0.0000 0.0000
17:07 22 19.6 86 261 1.1 2.8 1019.7 0.1010 0.1000
17:18 22 19.4 85 257 0.8 2.5 1019.6 0.1010 0.1000
17:28 21.9 19.5 86 255 0.8 1.7 1019.9 0.1010 0.1000
17:38 21.8 19.4 86 270 0.8 2.2 1020 0.1010 0.1000
17:48 21.7 19.3 86 270 0.8 2.8 1020.1 0.1010 0.1000
17:58 21.6 19 85 270 0.6 1.7 1020.1 0.0000 0.1000
18:08 21.5 18.9 85 270 0.8 1.9 1020.1 0.0000 0.1000
18:18 21.5 18.9 85 270 0.8 2.5 1020.3 0.0000 0.1000
18:29 20.4 16.6 79 117 1.4 4.2 1021.1 0.1010 0.2000
18:38 18.7 15.4 81 172 0.8 2.5 1021.6 0.1010 0.2000
18:48 17.8 14.9 83 270 0.6 1.7 1022.1 0.1010 0.2000
19:00 17.2 14.5 84 248 0.6 1.9 1022.5 0.3030 0.4000
19:10 16.7 14.3 86 190 0.3 1.1 1022.8 0.5050 0.6000
19:20 16.5 14.3 87 209 0.3 1.4 1022.9 0.7070 0.8000
19:30 16.4 14.2 87 209 0.3 1.1 1023.3 0.8080 1.0000
19:40 16.3 14.3 88 205 0.3 1.4 1023.7 0.8080 1.0000
19:50 16.2 14 87 206 0.6 1.7 1024 0.8080 1.0000
20:00 16 13.8 87 237 0.6 1.4 1023.8 0.6060 1.0000
20:10 15.9 13.7 87 270 0.6 1.7 1024.2 0.4040 1.0000
20:20 15.7 13.5 87 229 0.6 2.2 1024.6 0.2020 1.0000
20:30 15.6 13.4 87 270 0.3 1.4 1024.7 0.0000 1.0000
20:40 15.4 13.1 86 218 0.3 1.1 1025.2 1.0000
20:50 15.2 12.9 86 206 0.6 1.9 1025.6 1.0000
21:00 14.9 12.4 85 218 0.6 2.8 1026.2 1.0000
21:10 14.7 12.2 85 225 0.6 2.8 1026.3 1.0000
21:20 14.5 12 85 225 0.6 2.2 1026.6 1.0000
21:31 14.3 11.6 84 270 0.8 2.2 1027.2 1.0000
21:41 14.1 11.4 84 172 0.6 1.7 1027.4 0.0000 1.0000
21:51 13.9 11.2 84 270 0.6 1.7 1027.7 0.0000 1.0000
22:01 13.8 11.1 84 270 0.3 1.1 1028 0.0000 1.0000
22:12 13.7 11 84 270 0.6 1.9 1028.3 0.0000 1.0000
22:21 13.7 11 84 194 0.3 0.8 1028.4 0.0000 1.0000
22:31 13.6 11 84 239 0.3 1.9 1028.6 0.0000 1.0000
22:42 13.6 11 84 225 0.3 1.7 1028.9 0.0000 1.0000
22:52 13.5 10.9 84 225 0.3 1.1 1029.2 0.0000 1.0000
23:01 13.5 10.9 84 270 0.3 0.8 1029.5 0.0000 1.0000
23:11 13.5 10.9 84 233 0.6 1.1 1029.6 0.0000 1.0000
23:22 13.3 10.5 83 270 0.6 1.7 1030 0.0000 1.0000
23:31 13 10 82 270 0.3 2.2 1030 0.0000 1.0000
23:42 12.6 9.4 81 270 0.6 1.4 1030.2 0.0000 1.0000
23:52 12.2 9 81 213 0.3 1.4 1030.5 0.0000 1.0000

DAY STATISTIC

2018-09-23
TEMPERATURE
AVERAGE
19.7
HIGH
23.7
14:07
LOW
12.2
23:52
PRESSURE
AVERAGE
1022.0
HIGH
1030.5
23:52
LOW
1019.3
14:37
DEWPOINT
AVERAGE
16.4
HIGH
19.6
17:07
LOW
9.0
23:52
HUMIDITY
AVERAGE
82
HIGH
88
19:40
LOW
62
00:02
WIND SPEED
AVERAGE
0.7
HIGH
1.4
13:47
WIND GUST
AVERAGE
2.2
HIGH
5.6
14:57
WIND DIRECTION
PREVAILING
W
82.7%
N
0.0
NE
0.0
E
0.0
SE
0.7
S
2.9
SW
13.7
W
82.7
NW
0.0
PRECIPITATION
RAIN HOUR
0.8
RAIN DAY
1.0
TEMPERATURE (°C)
LOW
12.2
HIGH
23.7
AVERAGE
19.7
PRESSURE (hpa)
LOW
1019.3
HIGH
1030.5
AVERAGE
1022.0
DEVICE